Terminal Aerodrome Forecast
Issued by NWS

Home | Current Version | Previous Version | Text Only | Print | Product List | Glossary On
Versions: 1 2 3 4 5 6 7 8 9 10 11 12 13
000
FTUS42 TJSJ 281100
TAFJMZ
TAF
TJMZ 281139Z 2812/2912 06006KT P6SM SCT040
     FM281530 06010KT P6SM VCSH SCT025 BKN040
     FM282200 05006KT P6SM SCT025 SCT040
      AMD NOT SKED=

USA.gov is the U.S. government's official web portal to all federal, state and local government web resources and services.